sensor_id;sensor_type;location;lat;lon;timestamp;temperature;humidity
46976;DHT22;32724;51.094;6.996;2023-09-19T00:00:17;15.00;99.90
46976;DHT22;32724;51.094;6.996;2023-09-19T00:02:46;15.00;99.90
46976;DHT22;32724;51.094;6.996;2023-09-19T00:05:12;15.00;99.90
46976;DHT22;32724;51.094;6.996;2023-09-19T00:07:38;15.00;99.90
46976;DHT22;32724;51.094;6.996;2023-09-19T00:10:04;14.90;99.90
46976;DHT22;32724;51.094;6.996;2023-09-19T00:12:30;14.80;99.90
46976;DHT22;32724;51.094;6.996;2023-09-19T00:14:55;14.80;99.90
46976;DHT22;32724;51.094;6.996;2023-09-19T00:17:22;14.80;99.90
46976;DHT22;32724;51.094;6.996;2023-09-19T00:19:47;14.80;99.90
46976;DHT22;32724;51.094;6.996;2023-09-19T00:22:17;14.80;99.90
46976;DHT22;32724;51.094;6.996;2023-09-19T00:24:44;14.80;99.90
46976;DHT22;32724;51.094;6.996;2023-09-19T00:27:09;14.80;99.90
46976;DHT22;32724;51.094;6.996;2023-09-19T00:29:35;14.70;99.90
46976;DHT22;32724;51.094;6.996;2023-09-19T00:32:00;14.70;99.90
46976;DHT22;32724;51.094;6.996;2023-09-19T00:34:28;14.70;99.90
46976;DHT22;32724;51.094;6.996;2023-09-19T00:36:56;14.70;99.90
46976;DHT22;32724;51.094;6.996;2023-09-19T00:39:21;14.60;99.90
46976;DHT22;32724;51.094;6.996;2023-09-19T00:41:47;14.60;99.90
46976;DHT22;32724;51.094;6.996;2023-09-19T00:44:13;14.60;99.90
46976;DHT22;32724;51.094;6.996;2023-09-19T00:46:39;14.70;99.90
46976;DHT22;32724;51.094;6.996;2023-09-19T00:49:04;14.70;99.90
46976;DHT22;32724;51.094;6.996;2023-09-19T00:51:34;14.80;99.90
46976;DHT22;32724;51.094;6.996;2023-09-19T00:54:01;14.90;99.90
46976;DHT22;32724;51.094;6.996;2023-09-19T00:56:28;15.00;99.90
46976;DHT22;32724;51.094;6.996;2023-09-19T00:58:53;15.10;99.90
46976;DHT22;32724;51.094;6.996;2023-09-19T01:01:19;15.10;99.90
46976;DHT22;32724;51.094;6.996;2023-09-19T01:03:45;15.10;99.90
46976;DHT22;32724;51.094;6.996;2023-09-19T01:06:10;15.10;99.90
46976;DHT22;32724;51.094;6.996;2023-09-19T01:08:36;15.20;99.90
46976;DHT22;32724;51.094;6.996;2023-09-19T01:16:32;15.10;99.90
46976;DHT22;32724;51.094;6.996;2023-09-19T01:22:42;15.10;99.90
46976;DHT22;32724;51.094;6.996;2023-09-19T01:28:25;15.20;99.90
46976;DHT22;32724;51.094;6.996;2023-09-19T01:30:57;15.20;99.90
46976;DHT22;32724;51.094;6.996;2023-09-19T01:33:26;15.30;99.90
46976;DHT22;32724;51.094;6.996;2023-09-19T01:35:52;15.40;99.90
46976;DHT22;32724;51.094;6.996;2023-09-19T01:38:19;15.40;99.90
46976;DHT22;32724;51.094;6.996;2023-09-19T01:41:03;15.40;99.90
46976;DHT22;32724;51.094;6.996;2023-09-19T01:43:36;15.40;99.90
46976;DHT22;32724;51.094;6.996;2023-09-19T01:46:13;15.30;99.90
46976;DHT22;32724;51.094;6.996;2023-09-19T01:48:52;15.30;99.90
46976;DHT22;32724;51.094;6.996;2023-09-19T01:51:27;15.20;99.90
46976;DHT22;32724;51.094;6.996;2023-09-19T01:56:35;15.20;99.90
46976;DHT22;32724;51.094;6.996;2023-09-19T01:59:06;15.30;99.90
46976;DHT22;32724;51.094;6.996;2023-09-19T02:01:33;15.30;99.90
46976;DHT22;32724;51.094;6.996;2023-09-19T02:04:00;15.40;99.90
46976;DHT22;32724;51.094;6.996;2023-09-19T02:06:26;15.40;99.90
46976;DHT22;32724;51.094;6.996;2023-09-19T02:08:54;15.40;99.90
46976;DHT22;32724;51.094;6.996;2023-09-19T02:11:19;15.40;99.90
46976;DHT22;32724;51.094;6.996;2023-09-19T02:13:45;15.30;99.90
46976;DHT22;32724;51.094;6.996;2023-09-19T02:16:11;15.30;99.90
46976;DHT22;32724;51.094;6.996;2023-09-19T02:18:38;15.40;99.90
46976;DHT22;32724;51.094;6.996;2023-09-19T02:21:04;15.30;99.90
46976;DHT22;32724;51.094;6.996;2023-09-19T02:23:32;15.40;99.90
46976;DHT22;32724;51.094;6.996;2023-09-19T02:25:58;15.40;99.90
46976;DHT22;32724;51.094;6.996;2023-09-19T02:28:26;15.40;99.90
46976;DHT22;32724;51.094;6.996;2023-09-19T02:30:55;15.40;99.90
46976;DHT22;32724;51.094;6.996;2023-09-19T02:33:21;15.30;99.90
46976;DHT22;32724;51.094;6.996;2023-09-19T02:35:47;15.30;99.90
46976;DHT22;32724;51.094;6.996;2023-09-19T02:38:13;15.30;99.90
46976;DHT22;32724;51.094;6.996;2023-09-19T02:40:43;15.20;99.90
46976;DHT22;32724;51.094;6.996;2023-09-19T02:43:09;15.20;99.90
46976;DHT22;32724;51.094;6.996;2023-09-19T02:45:35;15.30;99.90
46976;DHT22;32724;51.094;6.996;2023-09-19T02:48:00;15.30;99.90
46976;DHT22;32724;51.094;6.996;2023-09-19T02:50:27;15.30;99.90
46976;DHT22;32724;51.094;6.996;2023-09-19T02:52:53;15.30;99.90
46976;DHT22;32724;51.094;6.996;2023-09-19T02:55:19;15.20;99.90
46976;DHT22;32724;51.094;6.996;2023-09-19T02:57:51;15.20;99.90
46976;DHT22;32724;51.094;6.996;2023-09-19T03:00:18;15.10;99.90
46976;DHT22;32724;51.094;6.996;2023-09-19T03:02:54;15.20;99.90
46976;DHT22;32724;51.094;6.996;2023-09-19T03:05:20;15.10;99.90
46976;DHT22;32724;51.094;6.996;2023-09-19T03:07:47;15.10;99.90
46976;DHT22;32724;51.094;6.996;2023-09-19T03:10:22;15.10;99.90
46976;DHT22;32724;51.094;6.996;2023-09-19T03:12:47;15.10;99.90
46976;DHT22;32724;51.094;6.996;2023-09-19T03:15:14;15.00;99.90
46976;DHT22;32724;51.094;6.996;2023-09-19T03:17:47;15.00;99.90
46976;DHT22;32724;51.094;6.996;2023-09-19T03:20:14;14.90;99.90
46976;DHT22;32724;51.094;6.996;2023-09-19T03:22:43;14.90;99.90
46976;DHT22;32724;51.094;6.996;2023-09-19T03:25:08;14.80;99.90
46976;DHT22;32724;51.094;6.996;2023-09-19T03:27:37;14.70;99.90
46976;DHT22;32724;51.094;6.996;2023-09-19T03:30:04;14.70;99.90
46976;DHT22;32724;51.094;6.996;2023-09-19T03:32:34;14.60;99.90
46976;DHT22;32724;51.094;6.996;2023-09-19T03:35:00;14.60;99.90
46976;DHT22;32724;51.094;6.996;2023-09-19T03:37:26;14.60;99.90
46976;DHT22;32724;51.094;6.996;2023-09-19T03:39:51;14.60;99.90
46976;DHT22;32724;51.094;6.996;2023-09-19T03:42:17;14.60;99.90
46976;DHT22;32724;51.094;6.996;2023-09-19T03:44:43;14.60;99.90
46976;DHT22;32724;51.094;6.996;2023-09-19T03:47:08;14.50;99.90
46976;DHT22;32724;51.094;6.996;2023-09-19T03:49:34;14.50;99.90
46976;DHT22;32724;51.094;6.996;2023-09-19T03:51:59;14.40;99.90
46976;DHT22;32724;51.094;6.996;2023-09-19T03:54:25;14.40;99.90
46976;DHT22;32724;51.094;6.996;2023-09-19T03:56:50;14.40;99.90
46976;DHT22;32724;51.094;6.996;2023-09-19T03:59:16;14.30;99.90
46976;DHT22;32724;51.094;6.996;2023-09-19T04:01:43;14.20;99.90
46976;DHT22;32724;51.094;6.996;2023-09-19T04:04:09;14.20;99.90
46976;DHT22;32724;51.094;6.996;2023-09-19T04:06:35;14.20;99.90
46976;DHT22;32724;51.094;6.996;2023-09-19T04:09:01;14.20;99.90
46976;DHT22;32724;51.094;6.996;2023-09-19T04:11:27;14.20;99.90
46976;DHT22;32724;51.094;6.996;2023-09-19T04:13:52;14.20;99.90
46976;DHT22;32724;51.094;6.996;2023-09-19T04:16:18;14.10;99.90
46976;DHT22;32724;51.094;6.996;2023-09-19T04:18:43;14.10;99.90
46976;DHT22;32724;51.094;6.996;2023-09-19T04:21:09;14.10;99.90
46976;DHT22;32724;51.094;6.996;2023-09-19T04:23:35;14.10;99.90
46976;DHT22;32724;51.094;6.996;2023-09-19T04:26:00;14.10;99.90
46976;DHT22;32724;51.094;6.996;2023-09-19T04:28:26;14.10;99.90
46976;DHT22;32724;51.094;6.996;2023-09-19T04:30:53;14.10;99.90
46976;DHT22;32724;51.094;6.996;2023-09-19T04:33:18;14.10;99.90
46976;DHT22;32724;51.094;6.996;2023-09-19T04:35:44;14.10;99.90
46976;DHT22;32724;51.094;6.996;2023-09-19T04:38:10;14.10;99.90
46976;DHT22;32724;51.094;6.996;2023-09-19T04:40:35;14.10;99.90
46976;DHT22;32724;51.094;6.996;2023-09-19T04:43:01;14.10;99.90
46976;DHT22;32724;51.094;6.996;2023-09-19T04:45:28;14.10;99.90
46976;DHT22;32724;51.094;6.996;2023-09-19T04:47:54;14.10;99.90
46976;DHT22;32724;51.094;6.996;2023-09-19T04:50:20;14.10;99.90
46976;DHT22;32724;51.094;6.996;2023-09-19T04:52:49;14.10;99.90
46976;DHT22;32724;51.094;6.996;2023-09-19T04:55:16;14.10;99.90
46976;DHT22;32724;51.094;6.996;2023-09-19T04:57:49;14.00;99.90
46976;DHT22;32724;51.094;6.996;2023-09-19T05:00:17;14.00;99.90
46976;DHT22;32724;51.094;6.996;2023-09-19T05:02:45;13.90;99.90
46976;DHT22;32724;51.094;6.996;2023-09-19T05:05:11;14.00;99.90
46976;DHT22;32724;51.094;6.996;2023-09-19T05:07:39;13.90;99.90
46976;DHT22;32724;51.094;6.996;2023-09-19T05:10:05;13.90;99.90
46976;DHT22;32724;51.094;6.996;2023-09-19T05:12:33;13.90;99.90
46976;DHT22;32724;51.094;6.996;2023-09-19T05:14:59;13.90;99.90
46976;DHT22;32724;51.094;6.996;2023-09-19T05:17:26;13.90;99.90
46976;DHT22;32724;51.094;6.996;2023-09-19T05:19:52;13.80;99.90
46976;DHT22;32724;51.094;6.996;2023-09-19T05:22:18;13.80;99.90
46976;DHT22;32724;51.094;6.996;2023-09-19T05:24:44;13.80;99.90
46976;DHT22;32724;51.094;6.996;2023-09-19T05:27:12;13.80;99.90
46976;DHT22;32724;51.094;6.996;2023-09-19T05:29:38;13.80;99.90
46976;DHT22;32724;51.094;6.996;2023-09-19T05:32:04;13.80;99.90
46976;DHT22;32724;51.094;6.996;2023-09-19T05:34:31;13.80;99.90
46976;DHT22;32724;51.094;6.996;2023-09-19T05:36:56;13.80;99.90
46976;DHT22;32724;51.094;6.996;2023-09-19T05:39:22;13.70;99.90
46976;DHT22;32724;51.094;6.996;2023-09-19T05:41:48;13.90;99.90
46976;DHT22;32724;51.094;6.996;2023-09-19T05:44:13;13.90;99.90
46976;DHT22;32724;51.094;6.996;2023-09-19T05:46:40;14.00;99.90
46976;DHT22;32724;51.094;6.996;2023-09-19T05:49:05;14.10;99.90
46976;DHT22;32724;51.094;6.996;2023-09-19T05:51:31;14.20;99.90
46976;DHT22;32724;51.094;6.996;2023-09-19T05:53:56;14.30;99.90
46976;DHT22;32724;51.094;6.996;2023-09-19T05:56:23;14.40;99.90
46976;DHT22;32724;51.094;6.996;2023-09-19T05:58:49;14.50;99.90
46976;DHT22;32724;51.094;6.996;2023-09-19T06:01:15;14.50;99.90
46976;DHT22;32724;51.094;6.996;2023-09-19T06:03:40;14.60;99.90
46976;DHT22;32724;51.094;6.996;2023-09-19T06:06:06;14.60;99.90
46976;DHT22;32724;51.094;6.996;2023-09-19T06:08:35;14.70;99.90
46976;DHT22;32724;51.094;6.996;2023-09-19T06:11:01;14.80;99.90
46976;DHT22;32724;51.094;6.996;2023-09-19T06:13:29;14.80;99.90
46976;DHT22;32724;51.094;6.996;2023-09-19T06:15:55;14.90;99.90
46976;DHT22;32724;51.094;6.996;2023-09-19T06:18:22;14.90;99.90
46976;DHT22;32724;51.094;6.996;2023-09-19T06:20:52;15.00;99.90
46976;DHT22;32724;51.094;6.996;2023-09-19T06:23:17;15.00;99.90
46976;DHT22;32724;51.094;6.996;2023-09-19T06:25:43;15.00;99.90
46976;DHT22;32724;51.094;6.996;2023-09-19T06:28:09;15.10;99.90
46976;DHT22;32724;51.094;6.996;2023-09-19T06:30:38;15.10;99.90
46976;DHT22;32724;51.094;6.996;2023-09-19T06:33:05;15.10;99.90
46976;DHT22;32724;51.094;6.996;2023-09-19T06:35:33;15.20;99.90
46976;DHT22;32724;51.094;6.996;2023-09-19T06:37:59;15.20;99.90
46976;DHT22;32724;51.094;6.996;2023-09-19T06:40:28;15.20;99.90
46976;DHT22;32724;51.094;6.996;2023-09-19T06:42:53;15.30;99.90
46976;DHT22;32724;51.094;6.996;2023-09-19T06:45:19;15.40;99.90
46976;DHT22;32724;51.094;6.996;2023-09-19T06:47:47;15.40;99.90
46976;DHT22;32724;51.094;6.996;2023-09-19T06:50:17;15.50;99.90
46976;DHT22;32724;51.094;6.996;2023-09-19T06:52:44;15.50;99.90
46976;DHT22;32724;51.094;6.996;2023-09-19T06:55:10;15.60;99.90
46976;DHT22;32724;51.094;6.996;2023-09-19T06:57:38;15.60;99.90
46976;DHT22;32724;51.094;6.996;2023-09-19T07:00:06;15.60;99.90
46976;DHT22;32724;51.094;6.996;2023-09-19T07:02:41;15.60;99.90
46976;DHT22;32724;51.094;6.996;2023-09-19T07:05:06;15.60;99.90
46976;DHT22;32724;51.094;6.996;2023-09-19T07:07:32;15.70;99.90
46976;DHT22;32724;51.094;6.996;2023-09-19T07:10:01;15.70;99.90
46976;DHT22;32724;51.094;6.996;2023-09-19T07:12:26;15.80;99.90
46976;DHT22;32724;51.094;6.996;2023-09-19T07:14:52;15.90;99.90
46976;DHT22;32724;51.094;6.996;2023-09-19T07:17:17;16.00;99.90
46976;DHT22;32724;51.094;6.996;2023-09-19T07:19:44;16.00;99.90
46976;DHT22;32724;51.094;6.996;2023-09-19T07:22:10;16.10;99.90
46976;DHT22;32724;51.094;6.996;2023-09-19T07:24:35;16.10;99.90
46976;DHT22;32724;51.094;6.996;2023-09-19T07:27:02;16.20;99.90
46976;DHT22;32724;51.094;6.996;2023-09-19T07:29:28;16.20;99.90
46976;DHT22;32724;51.094;6.996;2023-09-19T07:31:53;16.20;99.90
46976;DHT22;32724;51.094;6.996;2023-09-19T07:34:19;16.40;99.90
46976;DHT22;32724;51.094;6.996;2023-09-19T07:36:47;16.50;99.90
46976;DHT22;32724;51.094;6.996;2023-09-19T07:39:13;16.60;99.90
46976;DHT22;32724;51.094;6.996;2023-09-19T07:41:38;16.70;99.90
46976;DHT22;32724;51.094;6.996;2023-09-19T07:44:04;16.80;99.90
46976;DHT22;32724;51.094;6.996;2023-09-19T07:46:30;16.90;99.90
46976;DHT22;32724;51.094;6.996;2023-09-19T07:48:57;17.00;99.90
46976;DHT22;32724;51.094;6.996;2023-09-19T07:51:22;17.00;99.90
46976;DHT22;32724;51.094;6.996;2023-09-19T07:53:48;17.00;99.90
46976;DHT22;32724;51.094;6.996;2023-09-19T07:56:14;17.20;99.90
46976;DHT22;32724;51.094;6.996;2023-09-19T07:58:40;17.20;99.90
46976;DHT22;32724;51.094;6.996;2023-09-19T08:01:10;17.20;99.90
46976;DHT22;32724;51.094;6.996;2023-09-19T08:03:36;17.30;99.90
46976;DHT22;32724;51.094;6.996;2023-09-19T08:06:08;17.50;99.90
46976;DHT22;32724;51.094;6.996;2023-09-19T08:08:34;17.60;99.90
46976;DHT22;32724;51.094;6.996;2023-09-19T08:11:03;17.70;99.90
46976;DHT22;32724;51.094;6.996;2023-09-19T08:13:36;17.70;99.90
46976;DHT22;32724;51.094;6.996;2023-09-19T08:16:03;17.80;99.90
46976;DHT22;32724;51.094;6.996;2023-09-19T08:18:29;17.80;99.90
46976;DHT22;32724;51.094;6.996;2023-09-19T08:20:55;17.80;99.90
46976;DHT22;32724;51.094;6.996;2023-09-19T08:23:24;17.90;99.90
46976;DHT22;32724;51.094;6.996;2023-09-19T08:25:50;18.00;99.90
46976;DHT22;32724;51.094;6.996;2023-09-19T08:28:15;17.90;99.90
46976;DHT22;32724;51.094;6.996;2023-09-19T08:30:47;18.00;99.90
46976;DHT22;32724;51.094;6.996;2023-09-19T08:33:13;17.90;99.90
46976;DHT22;32724;51.094;6.996;2023-09-19T08:35:40;17.90;99.90
46976;DHT22;32724;51.094;6.996;2023-09-19T08:38:08;18.10;99.90
46976;DHT22;32724;51.094;6.996;2023-09-19T08:40:37;18.20;99.90
46976;DHT22;32724;51.094;6.996;2023-09-19T08:43:05;18.40;99.90
46976;DHT22;32724;51.094;6.996;2023-09-19T08:45:33;18.50;99.90
46976;DHT22;32724;51.094;6.996;2023-09-19T08:48:24;18.70;99.90
46976;DHT22;32724;51.094;6.996;2023-09-19T08:50:57;18.60;99.90
46976;DHT22;32724;51.094;6.996;2023-09-19T08:54:12;18.80;99.90
46976;DHT22;32724;51.094;6.996;2023-09-19T08:56:17;18.60;99.90
46976;DHT22;32724;51.094;6.996;2023-09-19T08:58:50;18.50;99.90
46976;DHT22;32724;51.094;6.996;2023-09-19T09:01:18;18.70;99.90
46976;DHT22;32724;51.094;6.996;2023-09-19T09:03:54;18.80;99.90
46976;DHT22;32724;51.094;6.996;2023-09-19T09:06:24;18.60;99.90
46976;DHT22;32724;51.094;6.996;2023-09-19T09:08:52;18.80;99.90
46976;DHT22;32724;51.094;6.996;2023-09-19T09:11:19;18.70;99.90
46976;DHT22;32724;51.094;6.996;2023-09-19T09:13:45;18.70;99.90
46976;DHT22;32724;51.094;6.996;2023-09-19T09:16:11;18.90;99.90
46976;DHT22;32724;51.094;6.996;2023-09-19T09:18:38;19.10;99.90
46976;DHT22;32724;51.094;6.996;2023-09-19T09:21:03;19.10;99.90
46976;DHT22;32724;51.094;6.996;2023-09-19T09:23:32;19.10;99.90
46976;DHT22;32724;51.094;6.996;2023-09-19T09:25:59;19.10;99.90
46976;DHT22;32724;51.094;6.996;2023-09-19T09:28:29;19.30;99.90
46976;DHT22;32724;51.094;6.996;2023-09-19T09:30:56;19.40;99.90
46976;DHT22;32724;51.094;6.996;2023-09-19T09:33:23;19.40;99.90
46976;DHT22;32724;51.094;6.996;2023-09-19T09:35:51;19.50;99.90
46976;DHT22;32724;51.094;6.996;2023-09-19T09:38:23;19.70;99.90
46976;DHT22;32724;51.094;6.996;2023-09-19T09:40:54;19.80;99.90
46976;DHT22;32724;51.094;6.996;2023-09-19T09:43:33;19.90;99.90
46976;DHT22;32724;51.094;6.996;2023-09-19T09:46:18;19.90;99.90
46976;DHT22;32724;51.094;6.996;2023-09-19T09:49:10;19.90;99.90
46976;DHT22;32724;51.094;6.996;2023-09-19T09:52:06;19.90;99.90
46976;DHT22;32724;51.094;6.996;2023-09-19T09:54:34;19.80;99.90
46976;DHT22;32724;51.094;6.996;2023-09-19T09:57:12;19.80;99.90
46976;DHT22;32724;51.094;6.996;2023-09-19T09:59:54;19.80;99.90
46976;DHT22;32724;51.094;6.996;2023-09-19T10:02:35;20.00;99.90
46976;DHT22;32724;51.094;6.996;2023-09-19T10:05:19;20.00;99.90
46976;DHT22;32724;51.094;6.996;2023-09-19T10:07:46;20.00;99.90
46976;DHT22;32724;51.094;6.996;2023-09-19T10:12:58;19.80;99.90
46976;DHT22;32724;51.094;6.996;2023-09-19T10:15:32;19.70;99.90
46976;DHT22;32724;51.094;6.996;2023-09-19T10:18:06;19.80;99.90
46976;DHT22;32724;51.094;6.996;2023-09-19T10:20:34;20.10;99.90
46976;DHT22;32724;51.094;6.996;2023-09-19T10:23:06;20.10;99.90
46976;DHT22;32724;51.094;6.996;2023-09-19T10:25:39;19.90;99.90
46976;DHT22;32724;51.094;6.996;2023-09-19T10:28:09;19.90;99.90
46976;DHT22;32724;51.094;6.996;2023-09-19T10:30:41;19.90;99.90
46976;DHT22;32724;51.094;6.996;2023-09-19T10:33:12;20.00;99.90
46976;DHT22;32724;51.094;6.996;2023-09-19T10:35:39;20.10;99.90
46976;DHT22;32724;51.094;6.996;2023-09-19T10:38:06;20.20;99.90
46976;DHT22;32724;51.094;6.996;2023-09-19T10:40:35;20.00;99.90
46976;DHT22;32724;51.094;6.996;2023-09-19T10:43:05;19.90;99.90
46976;DHT22;32724;51.094;6.996;2023-09-19T10:45:31;19.70;99.90
46976;DHT22;32724;51.094;6.996;2023-09-19T10:47:58;19.60;99.90
46976;DHT22;32724;51.094;6.996;2023-09-19T10:50:24;19.50;99.90
46976;DHT22;32724;51.094;6.996;2023-09-19T10:52:51;19.60;99.90
46976;DHT22;32724;51.094;6.996;2023-09-19T10:55:25;19.60;99.90
46976;DHT22;32724;51.094;6.996;2023-09-19T10:57:53;19.70;99.90
46976;DHT22;32724;51.094;6.996;2023-09-19T11:00:19;19.70;99.90
46976;DHT22;32724;51.094;6.996;2023-09-19T11:03:17;19.80;99.90
46976;DHT22;32724;51.094;6.996;2023-09-19T11:09:01;19.90;99.90
46976;DHT22;32724;51.094;6.996;2023-09-19T11:11:51;19.90;99.90
46976;DHT22;32724;51.094;6.996;2023-09-19T11:30:35;20.40;99.90
46976;DHT22;32724;51.094;6.996;2023-09-19T11:33:21;20.60;99.90
46976;DHT22;32724;51.094;6.996;2023-09-19T11:36:08;20.70;99.90
46976;DHT22;32724;51.094;6.996;2023-09-19T11:43:52;20.80;99.90
46976;DHT22;32724;51.094;6.996;2023-09-19T11:46:20;20.80;99.90
46976;DHT22;32724;51.094;6.996;2023-09-19T11:48:51;20.80;99.90
46976;DHT22;32724;51.094;6.996;2023-09-19T11:51:24;20.70;99.90
46976;DHT22;32724;51.094;6.996;2023-09-19T11:53:55;20.70;99.90
46976;DHT22;32724;51.094;6.996;2023-09-19T11:56:22;20.70;99.90
46976;DHT22;32724;51.094;6.996;2023-09-19T11:58:50;20.70;99.90
46976;DHT22;32724;51.094;6.996;2023-09-19T12:01:31;20.70;99.90
46976;DHT22;32724;51.094;6.996;2023-09-19T12:04:01;20.90;99.90
46976;DHT22;32724;51.094;6.996;2023-09-19T12:06:30;21.10;99.90
46976;DHT22;32724;51.094;6.996;2023-09-19T12:08:57;21.10;99.90
46976;DHT22;32724;51.094;6.996;2023-09-19T12:11:28;21.20;99.90
46976;DHT22;32724;51.094;6.996;2023-09-19T12:13:55;21.30;99.90
46976;DHT22;32724;51.094;6.996;2023-09-19T12:16:24;21.40;99.90
46976;DHT22;32724;51.094;6.996;2023-09-19T12:18:50;21.20;99.90
46976;DHT22;32724;51.094;6.996;2023-09-19T12:21:31;21.20;99.90
46976;DHT22;32724;51.094;6.996;2023-09-19T12:26:43;21.40;99.90
46976;DHT22;32724;51.094;6.996;2023-09-19T12:29:21;21.30;99.40
46976;DHT22;32724;51.094;6.996;2023-09-19T12:31:51;21.10;97.70
46976;DHT22;32724;51.094;6.996;2023-09-19T12:34:29;21.20;99.90
46976;DHT22;32724;51.094;6.996;2023-09-19T12:37:11;21.20;98.40
46976;DHT22;32724;51.094;6.996;2023-09-19T12:39:47;21.00;97.00
46976;DHT22;32724;51.094;6.996;2023-09-19T12:42:19;20.90;97.20
46976;DHT22;32724;51.094;6.996;2023-09-19T12:44:48;20.80;97.80
46976;DHT22;32724;51.094;6.996;2023-09-19T12:47:16;20.80;98.40
46976;DHT22;32724;51.094;6.996;2023-09-19T12:50:11;20.80;98.60
46976;DHT22;32724;51.094;6.996;2023-09-19T12:52:49;20.80;97.90
46976;DHT22;32724;51.094;6.996;2023-09-19T12:55:26;20.90;98.50
46976;DHT22;32724;51.094;6.996;2023-09-19T12:58:00;20.90;97.80
46976;DHT22;32724;51.094;6.996;2023-09-19T13:00:41;20.90;97.70
46976;DHT22;32724;51.094;6.996;2023-09-19T13:03:27;20.90;99.40
46976;DHT22;32724;51.094;6.996;2023-09-19T13:06:02;21.00;98.60
46976;DHT22;32724;51.094;6.996;2023-09-19T13:08:37;21.00;98.50
46976;DHT22;32724;51.094;6.996;2023-09-19T13:11:17;21.10;97.80
46976;DHT22;32724;51.094;6.996;2023-09-19T13:16:14;21.00;97.70
46976;DHT22;32724;51.094;6.996;2023-09-19T13:21:16;21.00;97.40
46976;DHT22;32724;51.094;6.996;2023-09-19T13:23:55;21.00;97.80
46976;DHT22;32724;51.094;6.996;2023-09-19T13:26:27;21.10;97.90
46976;DHT22;32724;51.094;6.996;2023-09-19T13:28:54;21.10;97.40
46976;DHT22;32724;51.094;6.996;2023-09-19T13:31:20;21.10;97.30
46976;DHT22;32724;51.094;6.996;2023-09-19T13:33:48;21.20;96.50
46976;DHT22;32724;51.094;6.996;2023-09-19T13:36:15;21.30;96.20
46976;DHT22;32724;51.094;6.996;2023-09-19T13:38:41;21.20;97.50
46976;DHT22;32724;51.094;6.996;2023-09-19T13:41:10;21.20;96.10
46976;DHT22;32724;51.094;6.996;2023-09-19T13:43:37;21.30;97.20
46976;DHT22;32724;51.094;6.996;2023-09-19T13:46:03;21.40;96.10
46976;DHT22;32724;51.094;6.996;2023-09-19T13:48:29;21.40;96.40
46976;DHT22;32724;51.094;6.996;2023-09-19T13:50:55;21.40;96.80
46976;DHT22;32724;51.094;6.996;2023-09-19T13:53:21;21.50;97.90
46976;DHT22;32724;51.094;6.996;2023-09-19T13:55:46;21.60;97.80
46976;DHT22;32724;51.094;6.996;2023-09-19T13:58:14;21.60;97.70
46976;DHT22;32724;51.094;6.996;2023-09-19T14:00:39;21.90;97.30
46976;DHT22;32724;51.094;6.996;2023-09-19T14:03:05;22.10;97.70
46976;DHT22;32724;51.094;6.996;2023-09-19T14:05:31;22.30;98.10
46976;DHT22;32724;51.094;6.996;2023-09-19T14:07:57;22.20;96.50
46976;DHT22;32724;51.094;6.996;2023-09-19T14:10:23;22.10;96.30
46976;DHT22;32724;51.094;6.996;2023-09-19T14:12:49;21.80;95.80
46976;DHT22;32724;51.094;6.996;2023-09-19T14:15:15;21.60;96.40
46976;DHT22;32724;51.094;6.996;2023-09-19T14:17:41;21.40;96.70
46976;DHT22;32724;51.094;6.996;2023-09-19T14:20:13;21.40;97.10
46976;DHT22;32724;51.094;6.996;2023-09-19T14:22:40;21.30;97.90
46976;DHT22;32724;51.094;6.996;2023-09-19T14:25:06;21.20;97.60
46976;DHT22;32724;51.094;6.996;2023-09-19T14:27:32;21.30;98.10
46976;DHT22;32724;51.094;6.996;2023-09-19T14:29:57;21.20;97.50
46976;DHT22;32724;51.094;6.996;2023-09-19T14:32:23;21.00;98.20
46976;DHT22;32724;51.094;6.996;2023-09-19T14:34:49;20.90;98.30
46976;DHT22;32724;51.094;6.996;2023-09-19T14:37:15;21.10;99.40
46976;DHT22;32724;51.094;6.996;2023-09-19T14:39:46;21.30;99.30
46976;DHT22;32724;51.094;6.996;2023-09-19T14:42:12;21.40;99.00
46976;DHT22;32724;51.094;6.996;2023-09-19T14:44:40;21.30;99.20
46976;DHT22;32724;51.094;6.996;2023-09-19T14:47:05;21.30;99.30
46976;DHT22;32724;51.094;6.996;2023-09-19T14:49:35;21.30;99.20
46976;DHT22;32724;51.094;6.996;2023-09-19T14:52:07;21.40;98.90
46976;DHT22;32724;51.094;6.996;2023-09-19T14:54:32;21.40;98.40
46976;DHT22;32724;51.094;6.996;2023-09-19T14:56:59;21.40;99.00
46976;DHT22;32724;51.094;6.996;2023-09-19T14:59:31;21.40;99.30
46976;DHT22;32724;51.094;6.996;2023-09-19T15:01:57;21.40;99.50
46976;DHT22;32724;51.094;6.996;2023-09-19T15:04:23;21.40;98.40
46976;DHT22;32724;51.094;6.996;2023-09-19T15:06:49;21.30;98.90
46976;DHT22;32724;51.094;6.996;2023-09-19T15:09:16;21.20;99.00
46976;DHT22;32724;51.094;6.996;2023-09-19T15:11:44;20.90;98.90
46976;DHT22;32724;51.094;6.996;2023-09-19T15:14:09;20.80;99.60
46976;DHT22;32724;51.094;6.996;2023-09-19T15:16:35;20.70;99.90
46976;DHT22;32724;51.094;6.996;2023-09-19T15:19:01;20.70;99.90
46976;DHT22;32724;51.094;6.996;2023-09-19T15:21:26;20.50;99.90
46976;DHT22;32724;51.094;6.996;2023-09-19T15:23:52;20.40;99.90
46976;DHT22;32724;51.094;6.996;2023-09-19T15:26:17;20.30;99.90
46976;DHT22;32724;51.094;6.996;2023-09-19T15:28:45;20.30;99.90
46976;DHT22;32724;51.094;6.996;2023-09-19T15:31:12;20.30;99.90
46976;DHT22;32724;51.094;6.996;2023-09-19T15:33:38;20.20;99.90
46976;DHT22;32724;51.094;6.996;2023-09-19T15:36:12;20.30;99.90
46976;DHT22;32724;51.094;6.996;2023-09-19T15:41:18;20.30;99.90
46976;DHT22;32724;51.094;6.996;2023-09-19T15:43:44;20.20;99.90
46976;DHT22;32724;51.094;6.996;2023-09-19T15:46:09;20.20;99.90
46976;DHT22;32724;51.094;6.996;2023-09-19T15:48:35;20.20;99.90
46976;DHT22;32724;51.094;6.996;2023-09-19T15:51:04;20.10;99.90
46976;DHT22;32724;51.094;6.996;2023-09-19T15:53:43;20.10;99.90
46976;DHT22;32724;51.094;6.996;2023-09-19T15:56:09;20.10;99.90
46976;DHT22;32724;51.094;6.996;2023-09-19T15:58:35;20.20;99.90
46976;DHT22;32724;51.094;6.996;2023-09-19T16:01:08;20.10;99.90
46976;DHT22;32724;51.094;6.996;2023-09-19T16:03:38;20.20;99.90
46976;DHT22;32724;51.094;6.996;2023-09-19T16:06:11;20.00;99.90
46976;DHT22;32724;51.094;6.996;2023-09-19T16:08:45;19.40;99.90
46976;DHT22;32724;51.094;6.996;2023-09-19T16:11:11;19.00;99.90
46976;DHT22;32724;51.094;6.996;2023-09-19T16:13:41;18.90;99.90
46976;DHT22;32724;51.094;6.996;2023-09-19T16:16:09;18.80;99.90
46976;DHT22;32724;51.094;6.996;2023-09-19T16:18:47;18.70;99.90
46976;DHT22;32724;51.094;6.996;2023-09-19T16:21:13;18.80;99.90
46976;DHT22;32724;51.094;6.996;2023-09-19T16:23:39;18.70;99.90
46976;DHT22;32724;51.094;6.996;2023-09-19T16:26:07;18.90;99.90
46976;DHT22;32724;51.094;6.996;2023-09-19T16:28:34;19.10;99.90
46976;DHT22;32724;51.094;6.996;2023-09-19T16:31:05;19.40;99.90